Latest Weather Observations for St Kilda Harbour RMYS

IDV60801

Issued at 4:12 pm EST Monday 20 May 2024 (issued every 10 minutes, with the page automatically refreshed every 10 minutes)

About weather observations | Map of weather stations | Latest weather observations for VIC | Other Formats
Station Details ID: 086220 Name: ST KILDA HARBOUR - RMYS Lat: -37.86 Lon: 144.96 Height: 6.4 m
Data from the previous 72 hours. | See also: Recent months at St Kilda Harbour RMYS
Date/Time
EST
Temp
°C
App
Temp
°C
Dew
Point
°C
Rel
Hum
%
Delta-T
°C
Wind Press
QNH
hPa
Press
MSL
hPa
Rain since
9am
mm
Dir  Spd
km/h
Gust
km/h
Spd
kts
Gust
kts
20/04:00pm - - - - - SSW 24 28 13 15 - - -
20/03:30pm - - - - - SSW 26 28 14 15 - - -
20/03:00pm - - - - - SW 26 30 14 16 - - -
20/02:30pm - - - - - SSW 24 28 13 15 - - -
20/02:00pm - - - - - SSW 22 26 12 14 - - -
20/01:30pm - - - - - SSW 20 24 11 13 - - -
20/01:00pm - - - - - SSW 26 32 14 17 - - -
20/12:30pm - - - - - SSW 13 20 7 11 - - -
20/12:00pm - - - - - S 13 19 7 10 - - -
20/11:30am - - - - - SSE 15 20 8 11 - - -
20/11:00am - - - - - SSE 17 19 9 10 - - -
20/10:30am - - - - - SSE 17 20 9 11 - - -
20/10:00am - - - - - SW 20 24 11 13 - - -
20/09:30am - - - - - WSW 26 28 14 15 - - -
20/09:00am - - - - - WSW 26 32 14 17 - - -
20/08:30am - - - - - WSW 26 30 14 16 - - -
20/08:00am - - - - - WSW 30 33 16 18 - - -
20/07:30am - - - - - WSW 30 35 16 19 - - -
20/07:00am - - - - - W 26 32 14 17 - - -
20/06:30am - - - - - WSW 28 32 15 17 - - -
20/06:00am - - - - - WSW 30 33 16 18 - - -
20/05:30am - - - - - WSW 30 33 16 18 - - -
20/05:00am - - - - - WSW 30 33 16 18 - - -
20/04:30am - - - - - WSW 26 33 14 18 - - -
20/04:00am - - - - - WSW 32 35 17 19 - - -
20/03:30am - - - - - WSW 28 35 15 19 - - -
20/03:00am - - - - - WSW 28 35 15 19 - - -
20/02:30am - - - - - WSW 30 33 16 18 - - -
20/02:00am - - - - - WSW 26 30 14 16 - - -
20/01:30am - - - - - W 22 28 12 15 - - -
20/01:00am - - - - - WSW 26 32 14 17 - - -
20/12:30am - - - - - WSW 28 35 15 19 - - -
20/12:00am - - - - - SW 33 43 18 23 - - -
 
Date/Time
EST
Temp
°C
App
Temp
°C
Dew
Point
°C
Rel
Hum
%
Delta-T
°C
Wind Press
QNH
hPa
Press
MSL
hPa
Rain since
9am
mm
Dir  Spd
km/h
Gust
km/h
Spd
kts
Gust
kts
19/11:30pm - - - - - W 20 26 11 14 - - -
19/11:00pm - - - - - WSW 17 20 9 11 - - -
19/10:30pm - - - - - WSW 28 32 15 17 - - -
19/10:00pm - - - - - W 20 26 11 14 - - -
19/09:30pm - - - - - W 20 24 11 13 - - -
19/09:00pm - - - - - W 19 22 10 12 - - -
19/08:30pm - - - - - SW 28 33 15 18 - - -
19/08:00pm - - - - - SW 33 37 18 20 - - -
19/07:30pm - - - - - SSW 32 37 17 20 - - -
19/07:00pm - - - - - SW 26 30 14 16 - - -
19/06:30pm - - - - - SSW 26 32 14 17 - - -
19/06:00pm - - - - - SSW 32 35 17 19 - - -
19/05:30pm - - - - - SSW 30 33 16 18 - - -
19/05:00pm - - - - - SSW 26 33 14 18 - - -
19/04:30pm - - - - - SSW 19 26 10 14 - - -
19/04:00pm - - - - - SSW 20 24 11 13 - - -
19/03:30pm - - - - - SW 20 30 11 16 - - -
19/03:00pm - - - - - W 7 9 4 5 - - -
19/02:30pm - - - - - W 15 17 8 9 - - -
19/02:00pm - - - - - WSW 30 35 16 19 - - -
19/01:30pm - - - - - WSW 32 39 17 21 - - -
19/01:00pm - - - - - WSW 32 39 17 21 - - -
19/12:30pm - - - - - W 32 41 17 22 - - -
19/12:00pm - - - - - WSW 28 35 15 19 - - -
19/11:30am - - - - - W 28 33 15 18 - - -
19/11:00am - - - - - W 20 32 11 17 - - -
19/10:30am - - - - - WNW 19 26 10 14 - - -
19/10:00am - - - - - NW 17 22 9 12 - - -
19/09:30am - - - - - NW 19 24 10 13 - - -
19/09:00am - - - - - NW 17 24 9 13 - - -
19/08:30am - - - - - NW 19 22 10 12 - - -
19/08:00am - - - - - WNW 19 24 10 13 - - -
19/07:30am - - - - - NW 19 22 10 12 - - -
19/07:00am - - - - - NW 20 26 11 14 - - -
19/06:30am - - - - - NW 22 28 12 15 - - -
19/06:00am - - - - - NW 19 22 10 12 - - -
19/05:30am - - - - - WNW 19 24 10 13 - - -
19/05:00am - - - - - NW 19 24 10 13 - - -
19/04:30am - - - - - NW 20 26 11 14 - - -
19/04:00am - - - - - WNW 24 30 13 16 - - -
19/03:30am - - - - - NW 20 24 11 13 - - -
19/03:00am - - - - - NW 17 22 9 12 - - -
19/02:30am - - - - - NW 20 28 11 15 - - -
19/02:00am - - - - - NW 17 20 9 11 - - -
19/01:30am - - - - - NW 17 20 9 11 - - -
19/01:00am - - - - - NW 17 19 9 10 - - -
19/12:30am - - - - - NW 15 17 8 9 - - -
19/12:00am - - - - - NW 15 19 8 10 - - -
 
Date/Time
EST
Temp
°C
App
Temp
°C
Dew
Point
°C
Rel
Hum
%
Delta-T
°C
Wind Press
QNH
hPa
Press
MSL
hPa
Rain since
9am
mm
Dir  Spd
km/h
Gust
km/h
Spd
kts
Gust
kts
18/11:30pm - - - - - NW 13 17 7 9 - - -
18/11:00pm - - - - - WNW 17 19 9 10 - - -
18/10:30pm - - - - - WNW 13 19 7 10 - - -
18/10:00pm - - - - - WNW 17 19 9 10 - - -
18/09:30pm - - - - - SW 13 17 7 9 - - -
18/09:00pm - - - - - ENE 4 7 2 4 - - -
18/08:30pm - - - - - ESE 4 6 2 3 - - -
18/08:00pm - - - - - S 9 13 5 7 - - -
18/07:30pm - - - - - S 9 13 5 7 - - -
18/07:00pm - - - - - SSW 13 17 7 9 - - -
18/06:30pm - - - - - SSW 15 20 8 11 - - -
18/06:00pm - - - - - SSW 15 19 8 10 - - -
18/05:30pm - - - - - SSW 17 20 9 11 - - -
18/05:00pm - - - - - SSW 15 19 8 10 - - -
18/04:30pm - - - - - SSW 15 20 8 11 - - -
18/04:00pm - - - - - SSW 20 30 11 16 - - -
18/03:30pm - - - - - SSW 19 22 10 12 - - -
18/03:00pm - - - - - SSW 19 20 10 11 - - -
18/02:30pm - - - - - S 19 22 10 12 - - -
18/02:00pm - - - - - S 19 22 10 12 - - -
18/01:30pm - - - - - S 22 26 12 14 - - -
18/01:00pm - - - - - S 19 24 10 13 - - -
18/12:30pm - - - - - SSE 19 26 10 14 - - -
18/12:00pm - - - - - SSE 19 28 10 15 - - -
18/11:30am - - - - - ESE 19 26 10 14 - - -
18/11:00am - - - - - ESE 20 28 11 15 - - -
18/10:30am - - - - - SE 17 26 9 14 - - -
18/10:00am - - - - - ESE 17 24 9 13 - - -
18/09:30am - - - - - ESE 13 20 7 11 - - -
18/09:00am - - - - - ESE 13 20 7 11 - - -
18/08:30am - - - - - SE 13 19 7 10 - - -
18/08:00am - - - - - ESE 11 17 6 9 - - -
18/07:30am - - - - - SE 11 15 6 8 - - -
18/07:00am - - - - - SSE 24 28 13 15 - - -
18/06:30am - - - - - SSE 26 35 14 19 - - -
18/06:00am - - - - - SSE 28 35 15 19 - - -
18/05:30am - - - - - SSE 33 39 18 21 - - -
18/05:00am - - - - - SSE 39 46 21 25 - - -
18/04:30am - - - - - SSE 41 48 22 26 - - -
18/04:00am - - - - - SSE 35 43 19 23 - - -
18/03:30am - - - - - S 37 48 20 26 - - -
18/03:00am - - - - - SSE 32 43 17 23 - - -
18/02:30am - - - - - SSE 35 44 19 24 - - -
18/02:00am - - - - - SSE 24 35 13 19 - - -
18/01:30am - - - - - SSE 26 32 14 17 - - -
18/01:00am - - - - - SSE 26 35 14 19 - - -
18/12:30am - - - - - S 33 39 18 21 - - -
18/12:19am - - - - - SSW 39 50 21 27 - - -
18/12:00am - - - - - SSE 30 35 16 19 - - -
 
Date/Time
EST
Temp
°C
App
Temp
°C
Dew
Point
°C
Rel
Hum
%
Delta-T
°C
Wind Press
QNH
hPa
Press
MSL
hPa
Rain since
9am
mm
Dir  Spd
km/h
Gust
km/h
Spd
kts
Gust
kts
17/11:30pm - - - - - SSE 35 46 19 25 - - -
17/11:00pm - - - - - S 44 54 24 29 - - -
17/10:30pm - - - - - S 39 54 21 29 - - -
17/10:07pm - - - - - S 33 52 18 28 - - -
17/10:00pm - - - - - S 32 37 17 20 - - -
17/09:30pm - - - - - S 41 48 22 26 - - -
17/09:09pm - - - - - S 32 54 17 29 - - -
17/09:00pm - - - - - S 33 48 18 26 - - -
17/08:41pm - - - - - S 43 65 23 35 - - -
17/08:30pm - - - - - S 35 43 19 23 - - -
17/08:00pm - - - - - SSW 32 41 17 22 - - -
17/07:52pm - - - - - SSW 39 50 21 27 - - -
17/07:30pm - - - - - S 39 48 21 26 - - -
17/07:29pm - - - - - S 39 48 21 26 - - -
17/07:10pm - - - - - SSW 41 59 22 32 - - -
17/07:00pm - - - - - SSW 37 44 20 24 - - -
17/06:30pm - - - - - SSW 37 48 20 26 - - -
17/06:00pm - - - - - SSW 33 41 18 22 - - -
17/05:30pm - - - - - S 37 43 20 23 - - -
17/05:00pm - - - - - SSW 37 43 20 23 - - -
17/04:30pm - - - - - SSW 39 46 21 25 - - -

Other formats

Comma delimited format used in spreadsheet applications
http://www.bom.gov.au/fwo/IDV60801/IDV60801.95864.axf

JavaScript Object Notation format (JSON) in row-major order
http://www.bom.gov.au/fwo/IDV60801/IDV60801.95864.json

Data quality

Most of these data are generated automatically and are frequently updated. Quality checks on data are not normally performed. It is possible for incorrect values to appear. Refer to information at About Latest Weather Observations and please check the disclaimer before using these data.